AXM110 LIRF-LIEO
Flight info
| Callsign | AXM110 |
|---|---|
| Flight time | 0h 50m |
| Altitude | 19000 |
| Route | ESINO7H ESINO Z924 GITRI GITRI4L |
| Aircraft | A333/H-V/N |
Departure
| Time | 2026-05-05 10:25 |
|---|---|
| Airport | Rome–Fiumicino Leonardo da Vinci International Airport (LIRF) |
Arrival
| Time | 2026-05-05 11:15 |
|---|---|
| Airport | Olbia Costa Smeralda Airport (LIEO) |
| Time | Latitude | Longitude | Altitude | Speed | Heading |
|---|---|---|---|---|---|
| 2026-05-05 10:01 | 41.79898 | 12.25201 | 20 ft | 0 kts | 115° |
| 2026-05-05 10:13 | 41.79901 | 12.25191 | 21 ft | 3 kts | 115° |
| 2026-05-05 10:13 | 41.79908 | 12.25171 | 20 ft | 1 kts | 115° |
| 2026-05-05 10:13 | 41.79911 | 12.25162 | 20 ft | 1 kts | 113° |
| 2026-05-05 10:14 | 41.79914 | 12.25155 | 20 ft | 1 kts | 109° |
| 2026-05-05 10:14 | 41.79917 | 12.25143 | 20 ft | 1 kts | 97° |
| 2026-05-05 10:14 | 41.79917 | 12.25134 | 20 ft | 1 kts | 85° |
| 2026-05-05 10:14 | 41.79917 | 12.25123 | 20 ft | 1 kts | 70° |
| 2026-05-05 10:15 | 41.79912 | 12.25110 | 20 ft | 1 kts | 51° |
| 2026-05-05 10:15 | 41.79909 | 12.25104 | 20 ft | 1 kts | 40° |
| 2026-05-05 10:15 | 41.79903 | 12.25098 | 20 ft | 0 kts | 28° |
| 2026-05-05 10:15 | 41.79897 | 12.25094 | 20 ft | 0 kts | 25° |
| 2026-05-05 10:17 | 41.79898 | 12.25094 | 20 ft | 0 kts | 25° |
| 2026-05-05 10:17 | 41.79922 | 12.25110 | 20 ft | 6 kts | 25° |
| 2026-05-05 10:18 | 41.79990 | 12.25144 | 20 ft | 12 kts | 20° |
| 2026-05-05 10:18 | 41.80053 | 12.25182 | 20 ft | 16 kts | 29° |
| 2026-05-05 10:18 | 41.80131 | 12.25324 | 20 ft | 21 kts | 63° |
| 2026-05-05 10:18 | 41.80271 | 12.25444 | 20 ft | 26 kts | 24° |
| 2026-05-05 10:19 | 41.80367 | 12.25660 | 21 ft | 10 kts | 70° |
| 2026-05-05 10:19 | 41.80374 | 12.25686 | 21 ft | 8 kts | 70° |
| 2026-05-05 10:19 | 41.80383 | 12.25721 | 21 ft | 10 kts | 70° |
| 2026-05-05 10:19 | 41.80392 | 12.25758 | 21 ft | 12 kts | 70° |
| 2026-05-05 10:20 | 41.80416 | 12.25840 | 21 ft | 15 kts | 68° |
| 2026-05-05 10:20 | 41.80464 | 12.26003 | 21 ft | 21 kts | 69° |
| 2026-05-05 10:20 | 41.80520 | 12.26215 | 20 ft | 27 kts | 71° |
| 2026-05-05 10:20 | 41.80566 | 12.26384 | 20 ft | 12 kts | 69° |
| 2026-05-05 10:21 | 41.80603 | 12.26520 | 19 ft | 18 kts | 70° |
| 2026-05-05 10:21 | 41.80656 | 12.26710 | 18 ft | 24 kts | 70° |
| 2026-05-05 10:21 | 41.80714 | 12.26922 | 17 ft | 8 kts | 70° |
| 2026-05-05 10:21 | 41.80743 | 12.27026 | 16 ft | 14 kts | 70° |
| 2026-05-05 10:22 | 41.80796 | 12.27172 | 16 ft | 20 kts | 43° |
| 2026-05-05 10:22 | 41.80991 | 12.27191 | 15 ft | 16 kts | 320° |
| 2026-05-05 10:22 | 41.80999 | 12.27090 | 16 ft | 19 kts | 250° |
| 2026-05-05 10:22 | 41.80963 | 12.26953 | 16 ft | 1 kts | 252° |
| 2026-05-05 10:23 | 41.80960 | 12.26940 | 16 ft | 2 kts | 252° |
| 2026-05-05 10:23 | 41.80960 | 12.26939 | 16 ft | 0 kts | 252° |
| 2026-05-05 10:24 | 41.80922 | 12.26797 | 17 ft | 47 kts | 249° |
| 2026-05-05 10:24 | 41.80623 | 12.25714 | 21 ft | 136 kts | 249° |
| 2026-05-05 10:24 | 41.80372 | 12.24802 | 24 ft | 172 kts | 248° |
| 2026-05-05 10:25 | 41.79991 | 12.23243 | 611 ft | 175 kts | 249° |
| 2026-05-05 10:25 | 41.79635 | 12.21747 | 1420 ft | 171 kts | 248° |
| 2026-05-05 10:25 | 41.79397 | 12.20210 | 2194 ft | 173 kts | 270° |
| 2026-05-05 10:25 | 41.79487 | 12.18603 | 2763 ft | 172 kts | 263° |
| 2026-05-05 10:26 | 41.79440 | 12.17033 | 3241 ft | 172 kts | 262° |
| 2026-05-05 10:26 | 41.79217 | 12.15424 | 3519 ft | 181 kts | 241° |
| 2026-05-05 10:26 | 41.78384 | 12.14127 | 3763 ft | 195 kts | 219° |
| 2026-05-05 10:26 | 41.77336 | 12.12859 | 4289 ft | 205 kts | 222° |
| 2026-05-05 10:27 | 41.76316 | 12.11596 | 5073 ft | 203 kts | 223° |
| 2026-05-05 10:27 | 41.75281 | 12.10311 | 5763 ft | 206 kts | 224° |
| 2026-05-05 10:27 | 41.74224 | 12.08997 | 6447 ft | 208 kts | 225° |
| 2026-05-05 10:27 | 41.73180 | 12.07698 | 7148 ft | 209 kts | 225° |
| 2026-05-05 10:28 | 41.72110 | 12.06367 | 7829 ft | 211 kts | 225° |
| 2026-05-05 10:28 | 41.71018 | 12.05037 | 8525 ft | 213 kts | 219° |
| 2026-05-05 10:28 | 41.69589 | 12.04315 | 9093 ft | 228 kts | 187° |
| 2026-05-05 10:28 | 41.67942 | 12.04361 | 9499 ft | 246 kts | 184° |
| 2026-05-05 10:29 | 41.66151 | 12.04376 | 9858 ft | 264 kts | 184° |
| 2026-05-05 10:29 | 41.64203 | 12.04355 | 10242 ft | 279 kts | 189° |
| 2026-05-05 10:29 | 41.62310 | 12.03532 | 10629 ft | 289 kts | 215° |
| 2026-05-05 10:29 | 41.60822 | 12.01630 | 10973 ft | 303 kts | 238° |
| 2026-05-05 10:30 | 41.59974 | 11.98927 | 11334 ft | 319 kts | 252° |
| 2026-05-05 10:30 | 41.59099 | 11.96129 | 12026 ft | 325 kts | 246° |
| 2026-05-05 10:30 | 41.58150 | 11.93383 | 12834 ft | 326 kts | 245° |
| 2026-05-05 10:30 | 41.57172 | 11.90622 | 13544 ft | 330 kts | 245° |
| 2026-05-05 10:31 | 41.56160 | 11.87790 | 14262 ft | 334 kts | 245° |
| 2026-05-05 10:31 | 41.55125 | 11.84896 | 14975 ft | 337 kts | 245° |
| 2026-05-05 10:31 | 41.54071 | 11.81954 | 15684 ft | 341 kts | 245° |
| 2026-05-05 10:31 | 41.53024 | 11.79038 | 16339 ft | 345 kts | 245° |
| 2026-05-05 10:32 | 41.51937 | 11.76009 | 16969 ft | 349 kts | 245° |
| 2026-05-05 10:32 | 41.50855 | 11.73000 | 17602 ft | 352 kts | 245° |
| 2026-05-05 10:32 | 41.49750 | 11.69932 | 18208 ft | 356 kts | 245° |
| 2026-05-05 10:32 | 41.48658 | 11.66903 | 18897 ft | 356 kts | 245° |
| 2026-05-05 10:33 | 41.47559 | 11.63857 | 19052 ft | 360 kts | 245° |
| 2026-05-05 10:33 | 41.46455 | 11.60798 | 18972 ft | 353 kts | 245° |
| 2026-05-05 10:33 | 41.45365 | 11.57783 | 19061 ft | 352 kts | 245° |
| 2026-05-05 10:33 | 41.44308 | 11.54860 | 19024 ft | 352 kts | 245° |
| 2026-05-05 10:34 | 41.43236 | 11.51901 | 19019 ft | 351 kts | 245° |
| 2026-05-05 10:34 | 41.42137 | 11.48865 | 19025 ft | 352 kts | 245° |
| 2026-05-05 10:34 | 41.41040 | 11.45845 | 19020 ft | 352 kts | 245° |
| 2026-05-05 10:34 | 41.39945 | 11.42829 | 19018 ft | 352 kts | 245° |
| 2026-05-05 10:35 | 41.38855 | 11.39831 | 19016 ft | 352 kts | 245° |
| 2026-05-05 10:35 | 41.37752 | 11.36801 | 19017 ft | 352 kts | 245° |
| 2026-05-05 10:35 | 41.36659 | 11.33804 | 19017 ft | 353 kts | 244° |
| 2026-05-05 10:35 | 41.35593 | 11.30880 | 19025 ft | 352 kts | 244° |
| 2026-05-05 10:36 | 41.34497 | 11.27880 | 19028 ft | 352 kts | 244° |
| 2026-05-05 10:36 | 41.33390 | 11.24852 | 19024 ft | 352 kts | 244° |
| 2026-05-05 10:36 | 41.32327 | 11.21947 | 19029 ft | 353 kts | 244° |
| 2026-05-05 10:36 | 41.31247 | 11.18997 | 19028 ft | 353 kts | 244° |
| 2026-05-05 10:37 | 41.30172 | 11.16065 | 19028 ft | 353 kts | 244° |
| 2026-05-05 10:37 | 41.29090 | 11.13119 | 19023 ft | 353 kts | 244° |
| 2026-05-05 10:37 | 41.28004 | 11.10161 | 19023 ft | 353 kts | 244° |
| 2026-05-05 10:37 | 41.26922 | 11.07217 | 19026 ft | 353 kts | 244° |
| 2026-05-05 10:38 | 41.25826 | 11.04242 | 19025 ft | 354 kts | 244° |
| 2026-05-05 10:38 | 41.24733 | 11.01275 | 19022 ft | 354 kts | 244° |
| 2026-05-05 10:38 | 41.23650 | 10.98341 | 19022 ft | 354 kts | 244° |
| 2026-05-05 10:38 | 41.22546 | 10.95352 | 19019 ft | 354 kts | 244° |
| 2026-05-05 10:39 | 41.21457 | 10.92405 | 19024 ft | 354 kts | 244° |
| 2026-05-05 10:39 | 41.20356 | 10.89434 | 19013 ft | 354 kts | 244° |
| 2026-05-05 10:39 | 41.19270 | 10.86499 | 18795 ft | 356 kts | 244° |
| 2026-05-05 10:39 | 41.18167 | 10.83525 | 17785 ft | 368 kts | 244° |
| 2026-05-05 10:40 | 41.17027 | 10.80452 | 16680 ft | 379 kts | 244° |
| 2026-05-05 10:40 | 41.15870 | 10.77341 | 15895 ft | 379 kts | 244° |
| 2026-05-05 10:40 | 41.14719 | 10.74246 | 15381 ft | 372 kts | 244° |
| 2026-05-05 10:40 | 41.13584 | 10.71199 | 14767 ft | 368 kts | 244° |
| 2026-05-05 10:41 | 41.12441 | 10.68135 | 14092 ft | 366 kts | 244° |
| 2026-05-05 10:41 | 41.11315 | 10.65118 | 13463 ft | 362 kts | 244° |
| 2026-05-05 10:41 | 41.10216 | 10.62177 | 12843 ft | 360 kts | 244° |
| 2026-05-05 10:41 | 41.09110 | 10.59221 | 12215 ft | 357 kts | 244° |
| 2026-05-05 10:42 | 41.06928 | 10.53395 | 10986 ft | 352 kts | 244° |
| 2026-05-05 10:42 | 41.05848 | 10.50514 | 10535 ft | 343 kts | 244° |
| 2026-05-05 10:42 | 41.04802 | 10.47729 | 10248 ft | 332 kts | 244° |
| 2026-05-05 10:43 | 41.03773 | 10.44990 | 10092 ft | 317 kts | 244° |
| 2026-05-05 10:43 | 41.02792 | 10.42383 | 10047 ft | 300 kts | 244° |
| 2026-05-05 10:43 | 41.01884 | 10.39971 | 10004 ft | 285 kts | 244° |
| 2026-05-05 10:43 | 41.01017 | 10.37669 | 9952 ft | 271 kts | 244° |
| 2026-05-05 10:44 | 41.00200 | 10.35503 | 10077 ft | 252 kts | 244° |
| 2026-05-05 10:44 | 40.99441 | 10.33494 | 10134 ft | 239 kts | 244° |
| 2026-05-05 10:44 | 40.98708 | 10.31552 | 10195 ft | 237 kts | 244° |
| 2026-05-05 10:44 | 40.97962 | 10.29577 | 10233 ft | 237 kts | 244° |
| 2026-05-05 10:45 | 40.97215 | 10.27600 | 10215 ft | 239 kts | 244° |
| 2026-05-05 10:45 | 40.96466 | 10.25621 | 10174 ft | 237 kts | 244° |
| 2026-05-05 10:45 | 40.95727 | 10.23669 | 10121 ft | 237 kts | 244° |
| 2026-05-05 10:45 | 40.94987 | 10.21716 | 10060 ft | 238 kts | 244° |
| 2026-05-05 10:46 | 40.94243 | 10.19754 | 9987 ft | 237 kts | 244° |
| 2026-05-05 10:46 | 40.93496 | 10.17783 | 9788 ft | 240 kts | 244° |
| 2026-05-05 10:46 | 40.92758 | 10.15837 | 9663 ft | 235 kts | 244° |
| 2026-05-05 10:46 | 40.92063 | 10.13849 | 9420 ft | 238 kts | 245° |
| 2026-05-05 10:47 | 40.91369 | 10.11859 | 9164 ft | 237 kts | 245° |
| 2026-05-05 10:47 | 40.90688 | 10.09906 | 8919 ft | 235 kts | 245° |
| 2026-05-05 10:47 | 40.90002 | 10.07946 | 8680 ft | 234 kts | 245° |
| 2026-05-05 10:47 | 40.89325 | 10.06011 | 8449 ft | 235 kts | 245° |
| 2026-05-05 10:48 | 40.88636 | 10.04043 | 8212 ft | 235 kts | 245° |
| 2026-05-05 10:48 | 40.87804 | 10.02182 | 7974 ft | 234 kts | 235° |
| 2026-05-05 10:48 | 40.86876 | 10.00411 | 7740 ft | 235 kts | 236° |
| 2026-05-05 10:48 | 40.85955 | 9.98635 | 7508 ft | 234 kts | 236° |
| 2026-05-05 10:49 | 40.85098 | 9.96823 | 7306 ft | 230 kts | 249° |
| 2026-05-05 10:49 | 40.84949 | 9.94753 | 7267 ft | 227 kts | 281° |
| 2026-05-05 10:49 | 40.85677 | 9.92865 | 7043 ft | 239 kts | 310° |
| 2026-05-05 10:49 | 40.87053 | 9.91531 | 6816 ft | 241 kts | 323° |
| 2026-05-05 10:50 | 40.88491 | 9.90306 | 6553 ft | 240 kts | 324° |
| 2026-05-05 10:50 | 40.89922 | 9.89108 | 6284 ft | 239 kts | 324° |
| 2026-05-05 10:50 | 40.91332 | 9.87949 | 6056 ft | 237 kts | 329° |
| 2026-05-05 10:50 | 40.92959 | 9.87467 | 6009 ft | 239 kts | 2° |
| 2026-05-05 10:51 | 40.94529 | 9.88193 | 5995 ft | 242 kts | 35° |
| 2026-05-05 10:51 | 40.95645 | 9.89910 | 6044 ft | 250 kts | 58° |
| 2026-05-05 10:51 | 40.96582 | 9.91821 | 6019 ft | 245 kts | 56° |
| 2026-05-05 10:51 | 40.97541 | 9.93698 | 6005 ft | 246 kts | 56° |
| 2026-05-05 10:52 | 40.98488 | 9.95538 | 5990 ft | 246 kts | 55° |
| 2026-05-05 10:52 | 40.99456 | 9.97416 | 5991 ft | 243 kts | 56° |
| 2026-05-05 10:52 | 41.00414 | 9.99277 | 5993 ft | 246 kts | 56° |
| 2026-05-05 10:52 | 41.01362 | 10.01115 | 5983 ft | 244 kts | 56° |
| 2026-05-05 10:53 | 41.02325 | 10.02987 | 5989 ft | 244 kts | 55° |
| 2026-05-05 10:53 | 41.03283 | 10.04846 | 5981 ft | 246 kts | 55° |
| 2026-05-05 10:53 | 41.04241 | 10.06700 | 5972 ft | 246 kts | 55° |
| 2026-05-05 10:53 | 41.05213 | 10.08583 | 5967 ft | 243 kts | 55° |
| 2026-05-05 10:54 | 41.06216 | 10.10432 | 5964 ft | 246 kts | 45° |
| 2026-05-05 10:54 | 41.07629 | 10.11596 | 5971 ft | 242 kts | 12° |
| 2026-05-05 10:54 | 41.08832 | 10.11731 | 5970 ft | 235 kts | 348° |
| 2026-05-05 10:54 | 41.08905 | 10.11718 | 5835 ft | 234 kts | 346° |
| 2026-05-05 10:55 | 41.10324 | 10.10902 | 5933 ft | 224 kts | 322° |
| 2026-05-05 10:55 | 41.11615 | 10.09764 | 5931 ft | 222 kts | 322° |
| 2026-05-05 10:55 | 41.12946 | 10.08587 | 5943 ft | 226 kts | 322° |
| 2026-05-05 10:55 | 41.14242 | 10.07433 | 5929 ft | 223 kts | 322° |
| 2026-05-05 10:56 | 41.15505 | 10.06198 | 5946 ft | 222 kts | 308° |
| 2026-05-05 10:56 | 41.16172 | 10.04433 | 5954 ft | 209 kts | 274° |
| 2026-05-05 10:56 | 41.15946 | 10.02522 | 6009 ft | 216 kts | 244° |
| 2026-05-05 10:56 | 41.15215 | 10.00840 | 6002 ft | 208 kts | 239° |
| 2026-05-05 10:57 | 41.14430 | 9.99189 | 5978 ft | 213 kts | 237° |
| 2026-05-05 10:57 | 41.13602 | 9.97526 | 5970 ft | 215 kts | 236° |
| 2026-05-05 10:57 | 41.12783 | 9.95906 | 5936 ft | 210 kts | 236° |
| 2026-05-05 10:57 | 41.11958 | 9.94280 | 5944 ft | 215 kts | 236° |
| 2026-05-05 10:58 | 41.11134 | 9.92659 | 5910 ft | 208 kts | 236° |
| 2026-05-05 10:58 | 41.10302 | 9.91025 | 5858 ft | 218 kts | 236° |
| 2026-05-05 10:58 | 41.09446 | 9.89343 | 5578 ft | 221 kts | 236° |
| 2026-05-05 10:58 | 41.08585 | 9.87653 | 5319 ft | 221 kts | 236° |
| 2026-05-05 10:59 | 41.07722 | 9.85958 | 5055 ft | 222 kts | 236° |
| 2026-05-05 10:59 | 41.06854 | 9.84263 | 4776 ft | 223 kts | 236° |
| 2026-05-05 10:59 | 41.05982 | 9.82559 | 4493 ft | 224 kts | 236° |
| 2026-05-05 10:59 | 41.05121 | 9.80879 | 4404 ft | 216 kts | 235° |
| 2026-05-05 11:00 | 41.04295 | 9.79277 | 4323 ft | 208 kts | 234° |
| 2026-05-05 11:00 | 41.03480 | 9.77742 | 4244 ft | 201 kts | 235° |
| 2026-05-05 11:00 | 41.02668 | 9.76196 | 4089 ft | 216 kts | 235° |
| 2026-05-05 11:00 | 41.01757 | 9.74458 | 3844 ft | 237 kts | 235° |
| 2026-05-05 11:01 | 41.00808 | 9.72641 | 3511 ft | 240 kts | 235° |
| 2026-05-05 11:01 | 40.99862 | 9.70830 | 3180 ft | 242 kts | 235° |
| 2026-05-05 11:01 | 40.98902 | 9.68993 | 2841 ft | 245 kts | 234° |
| 2026-05-05 11:01 | 40.97935 | 9.67143 | 2457 ft | 242 kts | 234° |
| 2026-05-05 11:02 | 40.96999 | 9.65355 | 2160 ft | 229 kts | 234° |
| 2026-05-05 11:02 | 40.96125 | 9.63685 | 1853 ft | 208 kts | 234° |
| 2026-05-05 11:02 | 40.95333 | 9.62173 | 1602 ft | 187 kts | 235° |
| 2026-05-05 11:02 | 40.94635 | 9.60844 | 1408 ft | 163 kts | 235° |
| 2026-05-05 11:03 | 40.94016 | 9.59662 | 1222 ft | 150 kts | 235° |
| 2026-05-05 11:03 | 40.93433 | 9.58552 | 1013 ft | 148 kts | 236° |
| 2026-05-05 11:03 | 40.92842 | 9.57428 | 816 ft | 149 kts | 236° |
| 2026-05-05 11:03 | 40.92250 | 9.56299 | 625 ft | 150 kts | 237° |
| 2026-05-05 11:04 | 40.91653 | 9.55166 | 428 ft | 150 kts | 236° |
| 2026-05-05 11:04 | 40.91062 | 9.54031 | 228 ft | 151 kts | 235° |
| 2026-05-05 11:04 | 40.90454 | 9.52871 | 56 ft | 142 kts | 236° |
| 2026-05-05 11:04 | 40.89898 | 9.51821 | 57 ft | 154 kts | 238° |
| 2026-05-05 11:05 | 40.89233 | 9.50540 | 57 ft | 177 kts | 230° |
| 2026-05-05 11:05 | 40.88486 | 9.49201 | 167 ft | 181 kts | 231° |
| 2026-05-05 11:05 | 40.87361 | 9.48011 | 1084 ft | 144 kts | 213° |
| 2026-05-05 11:05 | 40.86722 | 9.47541 | 915 ft | 172 kts | 208° |
| 2026-05-05 11:06 | 40.85500 | 9.47294 | 985 ft | 184 kts | 167° |
| 2026-05-05 11:06 | 40.84406 | 9.48196 | 1108 ft | 194 kts | 128° |
| 2026-05-05 11:06 | 40.83956 | 9.49906 | 1198 ft | 204 kts | 90° |
| 2026-05-05 11:06 | 40.84375 | 9.51709 | 1237 ft | 215 kts | 59° |
| 2026-05-05 11:07 | 40.85157 | 9.53308 | 1255 ft | 208 kts | 57° |
| 2026-05-05 11:07 | 40.86069 | 9.54892 | 1347 ft | 220 kts | 40° |
| 2026-05-05 11:07 | 40.86714 | 9.55435 | 1394 ft | 223 kts | 23° |
| 2026-05-05 11:07 | 40.88249 | 9.55686 | 1487 ft | 224 kts | 348° |
| 2026-05-05 11:08 | 40.89617 | 9.54788 | 1569 ft | 224 kts | 314° |
| 2026-05-05 11:08 | 40.90374 | 9.53037 | 1658 ft | 220 kts | 280° |
| 2026-05-05 11:08 | 40.90263 | 9.51079 | 1746 ft | 217 kts | 251° |
| 2026-05-05 11:08 | 40.89920 | 9.49142 | 1838 ft | 218 kts | 259° |
| 2026-05-05 11:09 | 40.89648 | 9.47162 | 1904 ft | 218 kts | 259° |
| 2026-05-05 11:09 | 40.89352 | 9.45188 | 1966 ft | 218 kts | 250° |
| 2026-05-05 11:09 | 40.88650 | 9.43463 | 2053 ft | 214 kts | 237° |
| 2026-05-05 11:09 | 40.87837 | 9.41785 | 2135 ft | 215 kts | 237° |
| 2026-05-05 11:10 | 40.87022 | 9.40108 | 2173 ft | 217 kts | 237° |
| 2026-05-05 11:10 | 40.86208 | 9.38432 | 2151 ft | 216 kts | 237° |
| 2026-05-05 11:10 | 40.85413 | 9.36799 | 2147 ft | 203 kts | 237° |
| 2026-05-05 11:10 | 40.84696 | 9.35316 | 2091 ft | 179 kts | 237° |
| 2026-05-05 11:11 | 40.84036 | 9.33972 | 2206 ft | 168 kts | 232° |
| 2026-05-05 11:11 | 40.83064 | 9.33161 | 2177 ft | 169 kts | 191° |
| 2026-05-05 11:11 | 40.81957 | 9.33469 | 2117 ft | 165 kts | 145° |
| 2026-05-05 11:11 | 40.81343 | 9.34769 | 2159 ft | 171 kts | 101° |
| 2026-05-05 11:12 | 40.81580 | 9.36306 | 2133 ft | 176 kts | 56° |
| 2026-05-05 11:12 | 40.82347 | 9.37580 | 2176 ft | 174 kts | 53° |
| 2026-05-05 11:12 | 40.83059 | 9.38865 | 2131 ft | 174 kts | 54° |
| 2026-05-05 11:12 | 40.83754 | 9.40155 | 2155 ft | 163 kts | 56° |
| 2026-05-05 11:13 | 40.84405 | 9.41386 | 1988 ft | 161 kts | 56° |
| 2026-05-05 11:13 | 40.85031 | 9.42576 | 1735 ft | 156 kts | 57° |
| 2026-05-05 11:13 | 40.85642 | 9.43736 | 1506 ft | 153 kts | 56° |
| 2026-05-05 11:13 | 40.86241 | 9.44873 | 1281 ft | 150 kts | 56° |
| 2026-05-05 11:14 | 40.86832 | 9.45998 | 1056 ft | 149 kts | 55° |
| 2026-05-05 11:14 | 40.87420 | 9.47108 | 836 ft | 146 kts | 55° |
| 2026-05-05 11:14 | 40.87991 | 9.48197 | 618 ft | 144 kts | 55° |
| 2026-05-05 11:14 | 40.88549 | 9.49252 | 391 ft | 140 kts | 57° |
| 2026-05-05 11:15 | 40.89110 | 9.50306 | 158 ft | 138 kts | 58° |
| 2026-05-05 11:15 | 40.89633 | 9.51316 | 56 ft | 120 kts | 54° |
| 2026-05-05 11:15 | 40.90004 | 9.52023 | 56 ft | 66 kts | 55° |
| 2026-05-05 11:15 | 40.90173 | 9.52347 | 56 ft | 32 kts | 55° |
| 2026-05-05 11:16 | 40.90309 | 9.52604 | 55 ft | 34 kts | 55° |
| 2026-05-05 11:16 | 40.90457 | 9.52575 | 55 ft | 29 kts | 272° |
| 2026-05-05 11:16 | 40.90374 | 9.52340 | 55 ft | 28 kts | 235° |
| 2026-05-05 11:16 | 40.90315 | 9.52226 | 55 ft | 11 kts | 235° |
| 2026-05-05 11:17 | 40.90270 | 9.52141 | 55 ft | 11 kts | 235° |
| 2026-05-05 11:17 | 40.90227 | 9.52059 | 56 ft | 10 kts | 235° |
| 2026-05-05 11:17 | 40.90184 | 9.51976 | 55 ft | 10 kts | 235° |